Aeroporto :
LOGIN :

Iscrizione | Disclaimer

   EN    FR    IT 

 










Sommario :    VFR   VFR Marginale   IFR   IFR Intensivo   IFR Molto Intensivo
Visibilità : 
Base nubi : 
>= 8 km
>= 3000ft
5 / 8 km
1000 / 3000 ft
1500m / 5 km
500 / 1000 ft
800 / 1500m
200 / 500 ft
< 800m
< 200 ft
Simboli :   Temporali  Nebbia  Neve Forte  Precipitazioni Forti  Vento > 20 kt
SIGMETs :   Varie  Temporali  Ghiacco  Turbolenza  Onda orograficha  Ceneri Vulcaniche






- Altitudine del aeroporto : 526 ft
- Codice IATA : LTN


EGGW - London Luton

ULTIMO METAR :
  • 131650Z 14005KT CAVOK 05/02 Q0995

METARs OBSOLETI :
  • 131620Z AUTO 17004KT 9999 NCD 05/02 Q0996
  • 131550Z AUTO 19005KT 140V220 9999 NCD 06/03 Q0996
  • 131520Z AUTO 19007KT 160V230 9999 FEW025 06/03 Q0997
  • 131450Z AUTO 19007KT 150V220 9999 BKN023 OVC034 07/03 Q0997
  • 131420Z AUTO 18006KT 9999 BKN028 BKN037 07/03 Q0997

TAF TAF EGGW
Valido dal 13 a 12 ore il 14 a 12 ore UTC


131058Z 1312/1412 22006KT 9999 FEW045
BECMG 1316/1319 11010KT
TEMPO 1321/1403 10015G25KT 6000 RA BKN007
PROB40
TEMPO 1321/1412 4000 RADZ
BECMG 1403/1406 VRB04KT BKN006
TEMPO 1403/1412 6000 SHRA RA BKN003
BECMG 1406/1409 03010KT
ATIS : +44 1582 395 204



MetMap, La meteo Aeronautica in un colpo d'occhio ! - Copyright ORBIFLY Dicembre 2007 - Disclaimer

ORBIFLY MET'MAP TEAM :

Programmazione e sviluppo : Alexandra Zaïnal
Concezione e sviluppo : Baudouin d'Aumeries
Co-Programmazione e sviluppo : Marc-Olivier Méhu
Supporto tecnico e logistico : Manuel Goepfert
Aiuto per la traduzione : Arnaldo La Scala

Contatto : metmap@orbifly.com




FONTI E CREDITI :

   NOAA